sensor_id;sensor_type;location;lat;lon;timestamp;P1;durP1;ratioP1;P2;durP2;ratioP2
34984;SDS011;21190;58.750;17.004;2023-02-15T00:00:04;12.60;;;6.45;;
34984;SDS011;21190;58.750;17.004;2023-02-15T00:02:32;14.45;;;5.68;;
34984;SDS011;21190;58.750;17.004;2023-02-15T00:04:59;16.02;;;6.60;;
34984;SDS011;21190;58.750;17.004;2023-02-15T00:07:26;13.82;;;5.85;;
34984;SDS011;21190;58.750;17.004;2023-02-15T00:09:53;11.85;;;5.63;;
34984;SDS011;21190;58.750;17.004;2023-02-15T00:12:20;14.32;;;4.93;;
34984;SDS011;21190;58.750;17.004;2023-02-15T00:14:47;15.50;;;4.93;;
34984;SDS011;21190;58.750;17.004;2023-02-15T00:17:14;10.82;;;5.45;;
34984;SDS011;21190;58.750;17.004;2023-02-15T00:19:41;16.13;;;5.43;;
34984;SDS011;21190;58.750;17.004;2023-02-15T00:22:08;14.65;;;5.63;;
34984;SDS011;21190;58.750;17.004;2023-02-15T00:24:36;11.25;;;4.93;;
34984;SDS011;21190;58.750;17.004;2023-02-15T00:27:03;15.50;;;5.63;;
34984;SDS011;21190;58.750;17.004;2023-02-15T00:29:30;14.32;;;6.10;;
34984;SDS011;21190;58.750;17.004;2023-02-15T00:31:57;12.45;;;5.72;;
34984;SDS011;21190;58.750;17.004;2023-02-15T00:34:25;13.70;;;5.88;;
34984;SDS011;21190;58.750;17.004;2023-02-15T00:36:53;13.10;;;5.38;;
34984;SDS011;21190;58.750;17.004;2023-02-15T00:39:21;14.50;;;5.20;;
34984;SDS011;21190;58.750;17.004;2023-02-15T00:41:48;11.90;;;5.68;;
34984;SDS011;21190;58.750;17.004;2023-02-15T00:44:15;13.80;;;5.03;;
34984;SDS011;21190;58.750;17.004;2023-02-15T00:46:42;17.17;;;5.25;;
34984;SDS011;21190;58.750;17.004;2023-02-15T00:49:09;11.73;;;5.78;;
34984;SDS011;21190;58.750;17.004;2023-02-15T00:51:37;9.65;;;5.30;;
34984;SDS011;21190;58.750;17.004;2023-02-15T00:54:04;10.77;;;4.95;;
34984;SDS011;21190;58.750;17.004;2023-02-15T00:56:31;16.85;;;6.22;;
34984;SDS011;21190;58.750;17.004;2023-02-15T00:58:58;11.40;;;5.35;;
34984;SDS011;21190;58.750;17.004;2023-02-15T01:01:25;10.85;;;5.55;;
34984;SDS011;21190;58.750;17.004;2023-02-15T01:03:52;11.20;;;4.80;;
34984;SDS011;21190;58.750;17.004;2023-02-15T01:06:19;10.60;;;6.05;;
34984;SDS011;21190;58.750;17.004;2023-02-15T01:08:47;13.27;;;5.55;;
34984;SDS011;21190;58.750;17.004;2023-02-15T01:11:15;7.82;;;4.88;;
34984;SDS011;21190;58.750;17.004;2023-02-15T01:13:49;15.82;;;6.47;;
34984;SDS011;21190;58.750;17.004;2023-02-15T01:16:21;13.90;;;6.60;;
34984;SDS011;21190;58.750;17.004;2023-02-15T01:18:49;14.63;;;5.70;;
34984;SDS011;21190;58.750;17.004;2023-02-15T01:21:17;12.02;;;6.28;;
34984;SDS011;21190;58.750;17.004;2023-02-15T01:23:46;12.45;;;5.93;;
34984;SDS011;21190;58.750;17.004;2023-02-15T01:26:13;14.65;;;6.38;;
34984;SDS011;21190;58.750;17.004;2023-02-15T01:28:41;17.10;;;7.50;;
34984;SDS011;21190;58.750;17.004;2023-02-15T01:31:09;12.98;;;5.78;;
34984;SDS011;21190;58.750;17.004;2023-02-15T01:33:38;16.85;;;7.18;;
34984;SDS011;21190;58.750;17.004;2023-02-15T01:36:05;14.50;;;6.15;;
34984;SDS011;21190;58.750;17.004;2023-02-15T01:38:33;11.80;;;6.63;;
34984;SDS011;21190;58.750;17.004;2023-02-15T01:41:01;17.15;;;7.60;;
34984;SDS011;21190;58.750;17.004;2023-02-15T01:43:59;13.52;;;6.97;;
34984;SDS011;21190;58.750;17.004;2023-02-15T01:49:05;14.70;;;7.10;;
34984;SDS011;21190;58.750;17.004;2023-02-15T01:51:38;15.43;;;6.93;;
34984;SDS011;21190;58.750;17.004;2023-02-15T01:56:41;13.40;;;6.88;;
34984;SDS011;21190;58.750;17.004;2023-02-15T01:59:11;14.70;;;7.63;;
34984;SDS011;21190;58.750;17.004;2023-02-15T02:01:42;19.15;;;8.20;;
34984;SDS011;21190;58.750;17.004;2023-02-15T02:06:48;16.15;;;6.97;;
34984;SDS011;21190;58.750;17.004;2023-02-15T02:09:16;15.63;;;7.53;;
34984;SDS011;21190;58.750;17.004;2023-02-15T02:11:44;13.82;;;7.78;;
34984;SDS011;21190;58.750;17.004;2023-02-15T02:14:13;19.38;;;7.80;;
34984;SDS011;21190;58.750;17.004;2023-02-15T02:28:01;15.65;;;7.63;;
34984;SDS011;21190;58.750;17.004;2023-02-15T02:33:53;19.17;;;8.32;;
34984;SDS011;21190;58.750;17.004;2023-02-15T02:40:03;16.80;;;9.00;;
34984;SDS011;21190;58.750;17.004;2023-02-15T02:42:39;18.63;;;9.38;;
34984;SDS011;21190;58.750;17.004;2023-02-15T02:45:09;15.90;;;7.83;;
34984;SDS011;21190;58.750;17.004;2023-02-15T02:47:53;18.55;;;8.43;;
34984;SDS011;21190;58.750;17.004;2023-02-15T02:50:25;13.93;;;7.72;;
34984;SDS011;21190;58.750;17.004;2023-02-15T02:52:55;14.07;;;8.00;;
34984;SDS011;21190;58.750;17.004;2023-02-15T02:55:25;15.85;;;7.38;;
34984;SDS011;21190;58.750;17.004;2023-02-15T02:58:03;14.85;;;7.85;;
34984;SDS011;21190;58.750;17.004;2023-02-15T03:00:32;17.38;;;7.70;;
34984;SDS011;21190;58.750;17.004;2023-02-15T03:03:09;19.15;;;8.63;;
34984;SDS011;21190;58.750;17.004;2023-02-15T03:05:54;19.23;;;8.70;;
34984;SDS011;21190;58.750;17.004;2023-02-15T03:08:27;23.23;;;8.82;;
34984;SDS011;21190;58.750;17.004;2023-02-15T03:11:03;16.35;;;8.45;;
34984;SDS011;21190;58.750;17.004;2023-02-15T03:13:31;16.92;;;8.88;;
34984;SDS011;21190;58.750;17.004;2023-02-15T03:15:59;16.38;;;8.30;;
34984;SDS011;21190;58.750;17.004;2023-02-15T03:18:48;14.38;;;7.95;;
34984;SDS011;21190;58.750;17.004;2023-02-15T03:21:20;24.85;;;8.77;;
34984;SDS011;21190;58.750;17.004;2023-02-15T03:23:54;16.27;;;7.82;;
34984;SDS011;21190;58.750;17.004;2023-02-15T03:26:26;14.55;;;7.78;;
34984;SDS011;21190;58.750;17.004;2023-02-15T03:28:55;17.85;;;8.02;;
34984;SDS011;21190;58.750;17.004;2023-02-15T03:31:26;16.42;;;8.18;;
34984;SDS011;21190;58.750;17.004;2023-02-15T03:33:57;14.00;;;7.18;;
34984;SDS011;21190;58.750;17.004;2023-02-15T03:36:34;15.93;;;8.25;;
34984;SDS011;21190;58.750;17.004;2023-02-15T03:47:36;15.75;;;7.13;;
34984;SDS011;21190;58.750;17.004;2023-02-15T03:50:12;14.27;;;7.07;;
34984;SDS011;21190;58.750;17.004;2023-02-15T03:52:59;17.00;;;8.40;;
34984;SDS011;21190;58.750;17.004;2023-02-15T03:55:29;17.20;;;7.60;;
34984;SDS011;21190;58.750;17.004;2023-02-15T03:57:56;15.50;;;7.57;;
34984;SDS011;21190;58.750;17.004;2023-02-15T04:00:44;18.52;;;8.77;;
34984;SDS011;21190;58.750;17.004;2023-02-15T04:03:39;17.30;;;7.93;;
34984;SDS011;21190;58.750;17.004;2023-02-15T04:06:08;15.63;;;8.15;;
34984;SDS011;21190;58.750;17.004;2023-02-15T04:08:35;15.07;;;6.93;;
34984;SDS011;21190;58.750;17.004;2023-02-15T04:13:48;12.30;;;6.13;;
34984;SDS011;21190;58.750;17.004;2023-02-15T04:16:23;15.27;;;7.63;;
34984;SDS011;21190;58.750;17.004;2023-02-15T04:18:50;13.57;;;6.80;;
34984;SDS011;21190;58.750;17.004;2023-02-15T04:21:36;18.98;;;7.68;;
34984;SDS011;21190;58.750;17.004;2023-02-15T04:24:21;16.00;;;7.57;;
34984;SDS011;21190;58.750;17.004;2023-02-15T04:27:07;14.63;;;7.43;;
34984;SDS011;21190;58.750;17.004;2023-02-15T04:29:34;14.23;;;7.05;;
34984;SDS011;21190;58.750;17.004;2023-02-15T04:32:01;13.45;;;6.82;;
34984;SDS011;21190;58.750;17.004;2023-02-15T04:34:28;18.30;;;7.30;;
34984;SDS011;21190;58.750;17.004;2023-02-15T04:36:55;16.73;;;7.75;;
34984;SDS011;21190;58.750;17.004;2023-02-15T04:39:22;18.02;;;7.45;;
34984;SDS011;21190;58.750;17.004;2023-02-15T04:41:49;16.00;;;7.72;;
34984;SDS011;21190;58.750;17.004;2023-02-15T04:44:16;16.73;;;7.35;;
34984;SDS011;21190;58.750;17.004;2023-02-15T04:46:43;16.10;;;7.95;;
34984;SDS011;21190;58.750;17.004;2023-02-15T04:49:11;15.20;;;7.55;;
34984;SDS011;21190;58.750;17.004;2023-02-15T04:51:38;18.20;;;8.18;;
34984;SDS011;21190;58.750;17.004;2023-02-15T04:54:05;19.50;;;8.35;;
34984;SDS011;21190;58.750;17.004;2023-02-15T04:56:32;17.05;;;7.75;;
34984;SDS011;21190;58.750;17.004;2023-02-15T04:59:01;18.45;;;7.70;;
34984;SDS011;21190;58.750;17.004;2023-02-15T05:01:28;17.75;;;7.70;;
34984;SDS011;21190;58.750;17.004;2023-02-15T05:03:55;15.55;;;7.97;;
34984;SDS011;21190;58.750;17.004;2023-02-15T05:06:22;15.82;;;7.50;;
34984;SDS011;21190;58.750;17.004;2023-02-15T05:08:49;17.08;;;7.85;;
34984;SDS011;21190;58.750;17.004;2023-02-15T05:11:16;18.60;;;8.43;;
34984;SDS011;21190;58.750;17.004;2023-02-15T05:13:43;17.08;;;7.97;;
34984;SDS011;21190;58.750;17.004;2023-02-15T05:16:10;14.18;;;7.20;;
34984;SDS011;21190;58.750;17.004;2023-02-15T05:18:37;18.48;;;7.60;;
34984;SDS011;21190;58.750;17.004;2023-02-15T05:21:04;16.45;;;7.35;;
34984;SDS011;21190;58.750;17.004;2023-02-15T05:23:32;17.63;;;8.50;;
34984;SDS011;21190;58.750;17.004;2023-02-15T05:25:59;19.13;;;7.35;;
34984;SDS011;21190;58.750;17.004;2023-02-15T05:28:44;18.42;;;7.75;;
34984;SDS011;21190;58.750;17.004;2023-02-15T05:31:16;14.50;;;7.68;;
34984;SDS011;21190;58.750;17.004;2023-02-15T05:33:44;18.83;;;8.02;;
34984;SDS011;21190;58.750;17.004;2023-02-15T05:36:11;15.05;;;7.97;;
34984;SDS011;21190;58.750;17.004;2023-02-15T05:38:39;14.68;;;7.07;;
34984;SDS011;21190;58.750;17.004;2023-02-15T05:41:06;14.68;;;6.97;;
34984;SDS011;21190;58.750;17.004;2023-02-15T05:43:34;15.93;;;7.40;;
34984;SDS011;21190;58.750;17.004;2023-02-15T05:46:02;16.35;;;7.50;;
34984;SDS011;21190;58.750;17.004;2023-02-15T05:48:30;17.33;;;8.20;;
34984;SDS011;21190;58.750;17.004;2023-02-15T05:53:27;17.50;;;6.93;;
34984;SDS011;21190;58.750;17.004;2023-02-15T05:55:54;13.63;;;6.47;;
34984;SDS011;21190;58.750;17.004;2023-02-15T05:58:26;16.10;;;7.22;;
34984;SDS011;21190;58.750;17.004;2023-02-15T06:00:54;14.63;;;6.70;;
34984;SDS011;21190;58.750;17.004;2023-02-15T06:03:22;14.48;;;6.95;;
34984;SDS011;21190;58.750;17.004;2023-02-15T06:05:49;14.45;;;5.72;;
34984;SDS011;21190;58.750;17.004;2023-02-15T06:08:16;15.63;;;6.63;;
34984;SDS011;21190;58.750;17.004;2023-02-15T06:10:47;13.95;;;6.10;;
34984;SDS011;21190;58.750;17.004;2023-02-15T06:13:14;14.15;;;7.10;;
34984;SDS011;21190;58.750;17.004;2023-02-15T06:15:41;17.80;;;7.43;;
34984;SDS011;21190;58.750;17.004;2023-02-15T06:18:08;16.80;;;7.28;;
34984;SDS011;21190;58.750;17.004;2023-02-15T06:20:35;14.13;;;6.35;;
34984;SDS011;21190;58.750;17.004;2023-02-15T06:23:02;16.80;;;7.10;;
34984;SDS011;21190;58.750;17.004;2023-02-15T06:25:29;13.15;;;6.22;;
34984;SDS011;21190;58.750;17.004;2023-02-15T06:27:56;13.50;;;6.03;;
34984;SDS011;21190;58.750;17.004;2023-02-15T06:30:23;17.88;;;6.80;;
34984;SDS011;21190;58.750;17.004;2023-02-15T06:32:50;11.40;;;5.95;;
34984;SDS011;21190;58.750;17.004;2023-02-15T06:35:17;13.68;;;5.93;;
34984;SDS011;21190;58.750;17.004;2023-02-15T06:37:47;12.82;;;6.25;;
34984;SDS011;21190;58.750;17.004;2023-02-15T06:40:14;13.68;;;5.63;;
34984;SDS011;21190;58.750;17.004;2023-02-15T06:42:42;14.32;;;6.70;;
34984;SDS011;21190;58.750;17.004;2023-02-15T06:45:09;13.13;;;5.72;;
34984;SDS011;21190;58.750;17.004;2023-02-15T06:47:36;15.63;;;6.45;;
34984;SDS011;21190;58.750;17.004;2023-02-15T06:50:04;16.40;;;7.68;;
34984;SDS011;21190;58.750;17.004;2023-02-15T06:52:32;16.65;;;6.97;;
34984;SDS011;21190;58.750;17.004;2023-02-15T06:54:59;16.25;;;7.32;;
34984;SDS011;21190;58.750;17.004;2023-02-15T06:57:26;14.25;;;6.38;;
34984;SDS011;21190;58.750;17.004;2023-02-15T06:59:53;15.75;;;6.95;;
34984;SDS011;21190;58.750;17.004;2023-02-15T07:02:20;15.82;;;6.97;;
34984;SDS011;21190;58.750;17.004;2023-02-15T07:04:47;17.75;;;7.18;;
34984;SDS011;21190;58.750;17.004;2023-02-15T07:07:14;15.63;;;6.80;;
34984;SDS011;21190;58.750;17.004;2023-02-15T07:09:41;18.63;;;8.40;;
34984;SDS011;21190;58.750;17.004;2023-02-15T07:12:08;16.23;;;6.47;;
34984;SDS011;21190;58.750;17.004;2023-02-15T07:14:54;18.27;;;7.07;;
34984;SDS011;21190;58.750;17.004;2023-02-15T07:17:21;18.98;;;7.10;;
34984;SDS011;21190;58.750;17.004;2023-02-15T07:20:08;18.10;;;8.38;;
34984;SDS011;21190;58.750;17.004;2023-02-15T07:22:40;18.20;;;7.78;;
34984;SDS011;21190;58.750;17.004;2023-02-15T07:25:08;21.20;;;7.70;;
34984;SDS011;21190;58.750;17.004;2023-02-15T07:27:36;14.68;;;6.78;;
34984;SDS011;21190;58.750;17.004;2023-02-15T07:30:04;21.55;;;7.97;;
34984;SDS011;21190;58.750;17.004;2023-02-15T07:32:33;18.60;;;8.40;;
34984;SDS011;21190;58.750;17.004;2023-02-15T07:35:00;19.05;;;8.50;;
34984;SDS011;21190;58.750;17.004;2023-02-15T07:37:27;17.30;;;7.00;;
34984;SDS011;21190;58.750;17.004;2023-02-15T07:39:55;15.63;;;7.60;;
34984;SDS011;21190;58.750;17.004;2023-02-15T07:42:22;21.27;;;9.48;;
34984;SDS011;21190;58.750;17.004;2023-02-15T07:44:49;19.83;;;7.90;;
34984;SDS011;21190;58.750;17.004;2023-02-15T07:47:16;18.35;;;7.70;;
34984;SDS011;21190;58.750;17.004;2023-02-15T07:49:44;19.60;;;8.57;;
34984;SDS011;21190;58.750;17.004;2023-02-15T07:52:11;18.90;;;8.20;;
34984;SDS011;21190;58.750;17.004;2023-02-15T07:54:38;23.15;;;9.38;;
34984;SDS011;21190;58.750;17.004;2023-02-15T07:57:05;18.77;;;7.97;;
34984;SDS011;21190;58.750;17.004;2023-02-15T07:59:32;19.83;;;8.82;;
34984;SDS011;21190;58.750;17.004;2023-02-15T08:01:59;22.75;;;9.70;;
34984;SDS011;21190;58.750;17.004;2023-02-15T08:04:26;20.85;;;9.30;;
34984;SDS011;21190;58.750;17.004;2023-02-15T08:06:53;24.67;;;9.02;;
34984;SDS011;21190;58.750;17.004;2023-02-15T08:09:21;21.50;;;9.93;;
34984;SDS011;21190;58.750;17.004;2023-02-15T08:11:48;23.63;;;8.27;;
34984;SDS011;21190;58.750;17.004;2023-02-15T08:14:17;22.33;;;9.05;;
34984;SDS011;21190;58.750;17.004;2023-02-15T08:16:46;21.92;;;9.93;;
34984;SDS011;21190;58.750;17.004;2023-02-15T08:21:49;22.25;;;9.68;;
34984;SDS011;21190;58.750;17.004;2023-02-15T08:24:22;19.83;;;9.23;;
34984;SDS011;21190;58.750;17.004;2023-02-15T08:26:50;17.63;;;8.75;;
34984;SDS011;21190;58.750;17.004;2023-02-15T08:29:22;20.48;;;9.18;;
34984;SDS011;21190;58.750;17.004;2023-02-15T08:31:54;18.70;;;8.60;;
34984;SDS011;21190;58.750;17.004;2023-02-15T08:34:32;19.15;;;8.32;;
34984;SDS011;21190;58.750;17.004;2023-02-15T08:37:01;22.65;;;10.13;;
34984;SDS011;21190;58.750;17.004;2023-02-15T08:39:28;21.27;;;9.25;;
34984;SDS011;21190;58.750;17.004;2023-02-15T08:41:55;19.48;;;8.65;;
34984;SDS011;21190;58.750;17.004;2023-02-15T08:44:22;21.02;;;9.63;;
34984;SDS011;21190;58.750;17.004;2023-02-15T08:46:49;22.15;;;9.05;;
34984;SDS011;21190;58.750;17.004;2023-02-15T08:49:18;21.30;;;8.93;;
34984;SDS011;21190;58.750;17.004;2023-02-15T08:51:47;18.02;;;8.00;;
34984;SDS011;21190;58.750;17.004;2023-02-15T08:54:16;17.48;;;8.15;;
34984;SDS011;21190;58.750;17.004;2023-02-15T08:56:44;17.33;;;8.50;;
34984;SDS011;21190;58.750;17.004;2023-02-15T08:59:14;21.13;;;8.23;;
34984;SDS011;21190;58.750;17.004;2023-02-15T09:01:42;16.20;;;7.57;;
34984;SDS011;21190;58.750;17.004;2023-02-15T09:04:11;18.25;;;6.85;;
34984;SDS011;21190;58.750;17.004;2023-02-15T09:06:39;17.35;;;8.18;;
34984;SDS011;21190;58.750;17.004;2023-02-15T09:09:07;17.42;;;8.02;;
34984;SDS011;21190;58.750;17.004;2023-02-15T09:11:38;15.38;;;7.13;;
34984;SDS011;21190;58.750;17.004;2023-02-15T09:14:09;17.10;;;7.25;;
34984;SDS011;21190;58.750;17.004;2023-02-15T09:16:40;17.40;;;7.40;;
34984;SDS011;21190;58.750;17.004;2023-02-15T09:19:08;15.70;;;6.82;;
34984;SDS011;21190;58.750;17.004;2023-02-15T09:21:36;16.20;;;6.78;;
34984;SDS011;21190;58.750;17.004;2023-02-15T09:24:05;16.75;;;6.97;;
34984;SDS011;21190;58.750;17.004;2023-02-15T09:26:38;16.73;;;7.28;;
34984;SDS011;21190;58.750;17.004;2023-02-15T09:29:09;17.65;;;7.90;;
34984;SDS011;21190;58.750;17.004;2023-02-15T09:31:38;18.13;;;7.30;;
34984;SDS011;21190;58.750;17.004;2023-02-15T09:34:07;23.58;;;8.13;;
34984;SDS011;21190;58.750;17.004;2023-02-15T09:36:35;15.95;;;7.45;;
34984;SDS011;21190;58.750;17.004;2023-02-15T10:19:46;18.30;;;6.97;;
34984;SDS011;21190;58.750;17.004;2023-02-15T10:27:56;16.98;;;7.00;;
34984;SDS011;21190;58.750;17.004;2023-02-15T10:30:35;16.40;;;6.75;;
34984;SDS011;21190;58.750;17.004;2023-02-15T10:49:53;18.85;;;6.82;;
34984;SDS011;21190;58.750;17.004;2023-02-15T10:55:31;23.17;;;7.40;;
34984;SDS011;21190;58.750;17.004;2023-02-15T10:58:17;15.60;;;6.60;;
34984;SDS011;21190;58.750;17.004;2023-02-15T11:06:19;13.38;;;5.93;;
34984;SDS011;21190;58.750;17.004;2023-02-15T11:08:54;16.15;;;6.70;;
34984;SDS011;21190;58.750;17.004;2023-02-15T11:11:27;15.07;;;6.32;;
34984;SDS011;21190;58.750;17.004;2023-02-15T11:14:00;13.93;;;5.88;;
34984;SDS011;21190;58.750;17.004;2023-02-15T11:16:34;14.65;;;6.35;;
34984;SDS011;21190;58.750;17.004;2023-02-15T11:21:54;15.10;;;6.57;;
34984;SDS011;21190;58.750;17.004;2023-02-15T11:24:27;16.33;;;6.63;;
34984;SDS011;21190;58.750;17.004;2023-02-15T11:27:04;14.45;;;5.72;;
34984;SDS011;21190;58.750;17.004;2023-02-15T11:32:40;12.63;;;5.95;;
34984;SDS011;21190;58.750;17.004;2023-02-15T11:37:45;11.35;;;5.00;;
34984;SDS011;21190;58.750;17.004;2023-02-15T11:42:47;12.57;;;5.65;;
34984;SDS011;21190;58.750;17.004;2023-02-15T11:47:49;11.65;;;5.18;;
34984;SDS011;21190;58.750;17.004;2023-02-15T11:50:19;12.63;;;6.07;;
34984;SDS011;21190;58.750;17.004;2023-02-15T11:52:50;14.07;;;5.13;;
34984;SDS011;21190;58.750;17.004;2023-02-15T11:55:21;11.82;;;5.55;;
34984;SDS011;21190;58.750;17.004;2023-02-15T11:57:54;13.45;;;5.97;;
34984;SDS011;21190;58.750;17.004;2023-02-15T12:00:38;12.95;;;4.88;;
34984;SDS011;21190;58.750;17.004;2023-02-15T12:06:25;13.80;;;5.82;;
34984;SDS011;21190;58.750;17.004;2023-02-15T12:09:01;15.70;;;5.68;;
34984;SDS011;21190;58.750;17.004;2023-02-15T12:11:31;14.68;;;6.57;;
34984;SDS011;21190;58.750;17.004;2023-02-15T12:14:07;12.93;;;6.20;;
34984;SDS011;21190;58.750;17.004;2023-02-15T12:16:43;15.30;;;7.55;;
34984;SDS011;21190;58.750;17.004;2023-02-15T12:19:18;13.30;;;6.88;;
34984;SDS011;21190;58.750;17.004;2023-02-15T12:21:54;10.42;;;5.70;;
34984;SDS011;21190;58.750;17.004;2023-02-15T12:24:30;14.32;;;6.25;;
34984;SDS011;21190;58.750;17.004;2023-02-15T12:27:04;15.60;;;6.70;;
34984;SDS011;21190;58.750;17.004;2023-02-15T12:29:41;15.35;;;6.80;;
34984;SDS011;21190;58.750;17.004;2023-02-15T12:32:33;15.85;;;5.65;;
34984;SDS011;21190;58.750;17.004;2023-02-15T12:35:08;14.13;;;6.78;;
34984;SDS011;21190;58.750;17.004;2023-02-15T12:37:40;12.13;;;5.22;;
34984;SDS011;21190;58.750;17.004;2023-02-15T12:40:28;12.30;;;5.13;;
34984;SDS011;21190;58.750;17.004;2023-02-15T12:42:57;10.75;;;4.85;;
34984;SDS011;21190;58.750;17.004;2023-02-15T12:45:31;11.05;;;5.05;;
34984;SDS011;21190;58.750;17.004;2023-02-15T12:50:39;13.77;;;5.22;;
34984;SDS011;21190;58.750;17.004;2023-02-15T12:53:11;11.57;;;5.45;;
34984;SDS011;21190;58.750;17.004;2023-02-15T12:55:49;11.90;;;5.53;;
34984;SDS011;21190;58.750;17.004;2023-02-15T12:58:21;15.18;;;6.35;;
34984;SDS011;21190;58.750;17.004;2023-02-15T13:01:11;11.38;;;5.88;;
34984;SDS011;21190;58.750;17.004;2023-02-15T13:06:28;8.93;;;4.90;;
34984;SDS011;21190;58.750;17.004;2023-02-15T13:09:05;13.70;;;5.38;;
34984;SDS011;21190;58.750;17.004;2023-02-15T13:11:41;15.40;;;5.93;;
34984;SDS011;21190;58.750;17.004;2023-02-15T13:14:16;13.40;;;6.47;;
34984;SDS011;21190;58.750;17.004;2023-02-15T13:16:47;14.57;;;6.65;;
34984;SDS011;21190;58.750;17.004;2023-02-15T13:19:18;13.73;;;6.90;;
34984;SDS011;21190;58.750;17.004;2023-02-15T13:21:50;15.82;;;7.95;;
34984;SDS011;21190;58.750;17.004;2023-02-15T13:26:55;14.90;;;6.50;;
34984;SDS011;21190;58.750;17.004;2023-02-15T13:29:40;13.02;;;5.88;;
34984;SDS011;21190;58.750;17.004;2023-02-15T13:35:00;20.23;;;6.68;;
34984;SDS011;21190;58.750;17.004;2023-02-15T13:37:37;13.73;;;6.50;;
34984;SDS011;21190;58.750;17.004;2023-02-15T13:42:47;12.13;;;5.80;;
34984;SDS011;21190;58.750;17.004;2023-02-15T13:50:53;15.50;;;6.47;;
34984;SDS011;21190;58.750;17.004;2023-02-15T13:53:56;11.80;;;5.80;;
34984;SDS011;21190;58.750;17.004;2023-02-15T14:07:33;13.60;;;6.40;;
34984;SDS011;21190;58.750;17.004;2023-02-15T14:15:40;15.63;;;6.38;;
34984;SDS011;21190;58.750;17.004;2023-02-15T14:21:09;16.92;;;7.00;;
34984;SDS011;21190;58.750;17.004;2023-02-15T14:32:09;12.80;;;6.50;;
34984;SDS011;21190;58.750;17.004;2023-02-15T14:34:45;13.02;;;6.10;;
34984;SDS011;21190;58.750;17.004;2023-02-15T14:37:20;16.88;;;7.40;;
34984;SDS011;21190;58.750;17.004;2023-02-15T14:40:00;16.50;;;7.88;;
34984;SDS011;21190;58.750;17.004;2023-02-15T14:43:08;25.85;;;8.88;;
34984;SDS011;21190;58.750;17.004;2023-02-15T14:46:07;22.60;;;8.23;;
34984;SDS011;21190;58.750;17.004;2023-02-15T14:48:53;17.08;;;7.22;;
34984;SDS011;21190;58.750;17.004;2023-02-15T14:54:10;16.67;;;6.85;;
34984;SDS011;21190;58.750;17.004;2023-02-15T15:04:38;17.92;;;8.00;;
34984;SDS011;21190;58.750;17.004;2023-02-15T15:10:50;23.98;;;9.43;;
34984;SDS011;21190;58.750;17.004;2023-02-15T15:12:47;26.67;;;9.90;;
34984;SDS011;21190;58.750;17.004;2023-02-15T15:18:05;25.58;;;11.32;;
34984;SDS011;21190;58.750;17.004;2023-02-15T15:31:04;24.67;;;10.68;;
34984;SDS011;21190;58.750;17.004;2023-02-15T15:48:47;22.02;;;10.43;;
34984;SDS011;21190;58.750;17.004;2023-02-15T15:51:17;24.10;;;11.70;;
34984;SDS011;21190;58.750;17.004;2023-02-15T15:53:48;23.77;;;11.10;;
34984;SDS011;21190;58.750;17.004;2023-02-15T15:56:20;27.50;;;11.05;;
34984;SDS011;21190;58.750;17.004;2023-02-15T15:58:52;23.55;;;11.60;;
34984;SDS011;21190;58.750;17.004;2023-02-15T16:01:29;26.25;;;11.93;;
34984;SDS011;21190;58.750;17.004;2023-02-15T16:04:01;27.25;;;11.85;;
34984;SDS011;21190;58.750;17.004;2023-02-15T16:06:29;26.95;;;12.35;;
34984;SDS011;21190;58.750;17.004;2023-02-15T16:09:22;28.02;;;10.85;;
34984;SDS011;21190;58.750;17.004;2023-02-15T16:11:56;27.05;;;11.30;;
34984;SDS011;21190;58.750;17.004;2023-02-15T16:16:57;26.50;;;11.65;;
34984;SDS011;21190;58.750;17.004;2023-02-15T16:19:27;25.88;;;11.98;;
34984;SDS011;21190;58.750;17.004;2023-02-15T16:22:11;26.83;;;11.75;;
34984;SDS011;21190;58.750;17.004;2023-02-15T16:27:40;25.05;;;10.85;;
34984;SDS011;21190;58.750;17.004;2023-02-15T16:33:06;25.08;;;10.82;;
34984;SDS011;21190;58.750;17.004;2023-02-15T16:35:52;25.10;;;11.25;;
34984;SDS011;21190;58.750;17.004;2023-02-15T16:38:23;30.85;;;11.73;;
34984;SDS011;21190;58.750;17.004;2023-02-15T16:43:51;24.38;;;11.18;;
34984;SDS011;21190;58.750;17.004;2023-02-15T16:46:27;35.25;;;11.25;;
34984;SDS011;21190;58.750;17.004;2023-02-15T16:49:04;25.45;;;10.75;;
34984;SDS011;21190;58.750;17.004;2023-02-15T16:51:53;30.30;;;10.73;;
34984;SDS011;21190;58.750;17.004;2023-02-15T16:54:34;28.15;;;11.02;;
34984;SDS011;21190;58.750;17.004;2023-02-15T16:57:02;26.95;;;10.95;;
34984;SDS011;21190;58.750;17.004;2023-02-15T17:01:59;30.50;;;11.40;;
34984;SDS011;21190;58.750;17.004;2023-02-15T17:04:30;31.50;;;13.05;;
34984;SDS011;21190;58.750;17.004;2023-02-15T17:09:59;29.80;;;11.10;;
34984;SDS011;21190;58.750;17.004;2023-02-15T17:15:33;28.77;;;11.27;;
34984;SDS011;21190;58.750;17.004;2023-02-15T17:18:03;28.92;;;11.13;;
34984;SDS011;21190;58.750;17.004;2023-02-15T17:20:31;33.28;;;12.48;;
34984;SDS011;21190;58.750;17.004;2023-02-15T17:23:02;27.92;;;11.13;;
34984;SDS011;21190;58.750;17.004;2023-02-15T17:25:35;29.45;;;10.77;;
34984;SDS011;21190;58.750;17.004;2023-02-15T17:28:05;27.88;;;10.50;;
34984;SDS011;21190;58.750;17.004;2023-02-15T17:30:43;31.33;;;11.45;;
34984;SDS011;21190;58.750;17.004;2023-02-15T17:33:58;32.50;;;11.95;;
34984;SDS011;21190;58.750;17.004;2023-02-15T17:36:04;31.42;;;11.77;;
34984;SDS011;21190;58.750;17.004;2023-02-15T17:38:32;31.55;;;12.00;;
34984;SDS011;21190;58.750;17.004;2023-02-15T17:40:59;31.33;;;10.77;;
34984;SDS011;21190;58.750;17.004;2023-02-15T17:43:27;31.23;;;11.35;;
34984;SDS011;21190;58.750;17.004;2023-02-15T17:45:54;30.33;;;10.13;;
34984;SDS011;21190;58.750;17.004;2023-02-15T17:48:40;27.02;;;9.75;;
34984;SDS011;21190;58.750;17.004;2023-02-15T17:51:11;29.00;;;10.90;;
34984;SDS011;21190;58.750;17.004;2023-02-15T17:53:39;27.00;;;10.75;;
34984;SDS011;21190;58.750;17.004;2023-02-15T17:56:06;28.33;;;10.50;;
34984;SDS011;21190;58.750;17.004;2023-02-15T17:58:36;28.25;;;11.43;;
34984;SDS011;21190;58.750;17.004;2023-02-15T18:01:09;28.23;;;11.50;;
34984;SDS011;21190;58.750;17.004;2023-02-15T18:04:00;29.92;;;10.95;;
34984;SDS011;21190;58.750;17.004;2023-02-15T18:06:46;30.42;;;10.50;;
34984;SDS011;21190;58.750;17.004;2023-02-15T18:09:32;28.92;;;11.07;;
34984;SDS011;21190;58.750;17.004;2023-02-15T18:14:53;24.75;;;10.23;;
34984;SDS011;21190;58.750;17.004;2023-02-15T18:17:29;27.65;;;9.98;;
34984;SDS011;21190;58.750;17.004;2023-02-15T18:20:00;25.20;;;9.35;;
34984;SDS011;21190;58.750;17.004;2023-02-15T18:22:31;25.83;;;10.25;;
34984;SDS011;21190;58.750;17.004;2023-02-15T18:24:58;33.42;;;9.63;;
34984;SDS011;21190;58.750;17.004;2023-02-15T18:27:25;27.23;;;10.95;;
34984;SDS011;21190;58.750;17.004;2023-02-15T18:29:52;25.65;;;10.07;;
34984;SDS011;21190;58.750;17.004;2023-02-15T18:32:31;27.30;;;11.20;;
34984;SDS011;21190;58.750;17.004;2023-02-15T18:35:00;26.80;;;10.20;;
34984;SDS011;21190;58.750;17.004;2023-02-15T18:37:29;28.48;;;10.13;;
34984;SDS011;21190;58.750;17.004;2023-02-15T18:40:00;23.70;;;8.95;;
34984;SDS011;21190;58.750;17.004;2023-02-15T18:42:30;29.38;;;10.40;;
34984;SDS011;21190;58.750;17.004;2023-02-15T18:45:23;29.10;;;10.18;;